Time;durP1;ratioP1;P1;durP2;ratioP2;P2;SDS_P1;SDS_P2;PMS_P1;PMS_P2;Temp;Humidity;BMP_temperature;BMP_pressure;BME280_temperature;BME280_humidity;BME280_pressure;Samples;Min_cycle;Max_cycle;Signal;HPM_P1;HPM_P2
2023/12/17 00:00:39;;;;;;;;;;;;;;;8.39;100.00;100466.80;68040;1275;1016424;-74
2023/12/17 00:04:02;;;;;;;;;;;;;;;8.31;100.00;100456.03;68028;1275;1016326;-74
2023/12/17 00:07:04;;;;;;;;;;;;;;;8.30;100.00;100445.77;68011;1275;1016348;-75
2023/12/17 00:10:07;;;;;;;;;;;;;;;8.37;100.00;100436.34;68017;1275;1016217;-75
2023/12/17 00:13:10;;;;;;;;;;;;;;;8.41;100.00;100448.29;68025;1275;1017536;-75
2023/12/17 00:16:12;;;;;;;;;;;;;;;8.35;100.00;100443.20;67941;1275;1016312;-75
2023/12/17 00:19:15;;;;;;;;;;;;;;;8.40;100.00;100437.85;68038;1275;1016442;-74
2023/12/17 00:22:18;;;;;;;;;;;;;;;8.36;100.00;100429.76;68020;1275;1016275;-73
2023/12/17 00:25:20;;;;;;;;;;;;;;;8.41;100.00;100428.92;68015;1275;1016509;-75
2023/12/17 00:28:23;;;;;;;;;;;;;;;8.43;100.00;100432.02;68046;1275;1016295;-75
2023/12/17 00:31:26;;;;;;;;;;;;;;;8.51;100.00;100448.40;68034;1275;1018515;-75
2023/12/17 00:34:28;;;;;;;;;;;;;;;8.51;100.00;100455.89;67987;1275;1016462;-75
2023/12/17 00:37:31;;;;;;;;;;;;;;;8.45;100.00;100453.95;67956;1275;1016329;-74
2023/12/17 00:40:33;;;;;;;;;;;;;;;8.45;100.00;100446.80;68018;1275;1016487;-74
2023/12/17 00:43:36;;;;;;;;;;;;;;;8.61;100.00;100444.48;67966;1275;1016245;-75
2023/12/17 00:46:39;;;;;;;;;;;;;;;8.64;100.00;100435.51;67985;1275;1016263;-74
2023/12/17 00:49:41;;;;;;;;;;;;;;;8.38;100.00;100450.27;67949;1275;1016639;-73
2023/12/17 00:52:44;;;;;;;;;;;;;;;8.36;100.00;100447.89;68016;1275;1016399;-75
2023/12/17 00:55:46;;;;;;;;;;;;;;;8.38;100.00;100437.73;67941;1275;1015778;-73
2023/12/17 00:58:49;;;;;;;;;;;;;;;8.48;100.00;100430.69;67966;1275;1015898;-74
2023/12/17 01:01:52;;;;;;;;;;;;;;;8.67;100.00;100424.78;68023;1275;1016316;-74
2023/12/17 01:04:54;;;;;;;;;;;;;;;8.59;100.00;100418.71;68031;1275;1016386;-74
2023/12/17 01:07:57;;;;;;;;;;;;;;;8.69;100.00;100417.91;67981;1275;1016441;-74
2023/12/17 01:10:59;;;;;;;;;;;;;;;8.67;100.00;100411.86;68004;1275;1016387;-74
2023/12/17 01:14:02;;;;;;;;;;;;;;;8.76;100.00;100421.03;68075;1275;1016509;-74
2023/12/17 01:17:06;;;;;;;;;;;;;;;8.80;100.00;100418.66;67986;1275;1016429;-74
2023/12/17 01:20:09;;;;;;;;;;;;;;;8.77;100.00;100414.71;67988;1275;1016396;-74
2023/12/17 01:23:11;;;;;;;;;;;;;;;8.81;100.00;100412.52;68032;1275;1017113;-74
2023/12/17 01:26:15;;;;;;;;;;;;;;;8.70;100.00;100409.86;68043;1275;1016998;-74
2023/12/17 01:29:17;;;;;;;;;;;;;;;8.89;100.00;100403.92;67998;1275;1016422;-75
2023/12/17 01:32:20;;;;;;;;;;;;;;;8.62;100.00;100391.44;68002;1275;1015784;-74
2023/12/17 01:35:22;;;;;;;;;;;;;;;8.79;100.00;100393.23;68062;1275;1016488;-75
2023/12/17 01:38:25;;;;;;;;;;;;;;;8.62;100.00;100379.41;68056;1275;1016484;-75
2023/12/17 01:41:28;;;;;;;;;;;;;;;8.74;100.00;100377.99;68000;1275;1016217;-75
2023/12/17 01:44:30;;;;;;;;;;;;;;;8.74;100.00;100379.92;68017;1275;1016482;-74
2023/12/17 01:47:33;;;;;;;;;;;;;;;8.70;100.00;100386.13;68064;1275;1016493;-75
2023/12/17 01:50:35;;;;;;;;;;;;;;;8.75;100.00;100379.90;68046;1275;1016461;-75
2023/12/17 01:53:38;;;;;;;;;;;;;;;9.02;100.00;100366.02;68009;1275;1016442;-74
2023/12/17 01:56:40;;;;;;;;;;;;;;;9.04;100.00;100366.48;67997;1275;1016532;-75
2023/12/17 01:59:43;;;;;;;;;;;;;;;9.07;100.00;100358.20;68040;1275;1016432;-74
2023/12/17 02:02:46;;;;;;;;;;;;;;;8.91;100.00;100358.88;68035;1275;1016163;-74
2023/12/17 02:05:48;;;;;;;;;;;;;;;8.81;100.00;100356.55;67999;1275;1016358;-75
2023/12/17 02:08:51;;;;;;;;;;;;;;;8.84;100.00;100362.55;67998;1275;1016483;-74
2023/12/17 02:11:53;;;;;;;;;;;;;;;8.77;100.00;100360.48;68058;1275;1016507;-75
2023/12/17 02:14:56;;;;;;;;;;;;;;;8.77;100.00;100359.95;68038;1275;1016230;-74
2023/12/17 02:17:59;;;;;;;;;;;;;;;8.89;100.00;100361.69;68006;1275;1015712;-74
2023/12/17 02:21:01;;;;;;;;;;;;;;;8.80;100.00;100360.06;68032;1275;1016383;-75
2023/12/17 02:24:04;;;;;;;;;;;;;;;8.91;100.00;100349.61;68052;1275;1016485;-74
2023/12/17 02:27:07;;;;;;;;;;;;;;;8.88;100.00;100355.10;68043;1275;1016425;-74
2023/12/17 02:30:09;;;;;;;;;;;;;;;8.84;100.00;100340.76;67985;1275;1016470;-73
2023/12/17 02:33:12;;;;;;;;;;;;;;;8.81;100.00;100337.15;68035;1275;1015827;-75
2023/12/17 02:36:14;;;;;;;;;;;;;;;8.85;100.00;100344.56;68038;1275;1016460;-75
2023/12/17 02:39:17;;;;;;;;;;;;;;;8.86;100.00;100346.98;68056;1275;1016033;-74
2023/12/17 02:42:21;;;;;;;;;;;;;;;8.96;100.00;100328.52;68000;1275;1016345;-75
2023/12/17 02:45:24;;;;;;;;;;;;;;;9.19;100.00;100336.89;68036;1275;1016602;-75
2023/12/17 02:48:27;;;;;;;;;;;;;;;9.01;100.00;100353.52;68035;1275;1016239;-75
2023/12/17 02:51:31;;;;;;;;;;;;;;;8.95;100.00;100364.48;68018;1275;1016096;-74
2023/12/17 02:54:34;;;;;;;;;;;;;;;9.00;100.00;100357.53;68015;1275;1016091;-74
2023/12/17 02:57:36;;;;;;;;;;;;;;;9.12;100.00;100350.02;67989;1275;1016464;-74
2023/12/17 03:00:39;;;;;;;;;;;;;;;9.10;100.00;100342.07;68032;1275;1017089;-74
2023/12/17 03:03:41;;;;;;;;;;;;;;;9.08;100.00;100351.36;68039;1275;1015792;-75
2023/12/17 03:06:44;;;;;;;;;;;;;;;9.20;100.00;100362.17;67983;1275;1016305;-73
2023/12/17 03:09:47;;;;;;;;;;;;;;;9.13;100.00;100340.73;67977;1275;1016563;-74
2023/12/17 03:12:50;;;;;;;;;;;;;;;9.41;100.00;100341.96;67958;1275;1016400;-73
2023/12/17 03:15:53;;;;;;;;;;;;;;;9.42;100.00;100345.23;67965;1275;1016496;-76
2023/12/17 03:18:56;;;;;;;;;;;;;;;9.54;100.00;100361.30;67999;1275;1015951;-75
2023/12/17 03:21:58;;;;;;;;;;;;;;;9.53;100.00;100361.30;67957;1275;1016470;-76
2023/12/17 03:25:01;;;;;;;;;;;;;;;9.56;100.00;100358.23;68020;1275;1016458;-74
2023/12/17 03:28:04;;;;;;;;;;;;;;;9.37;100.00;100356.92;67979;1275;1018752;-74
2023/12/17 03:31:07;;;;;;;;;;;;;;;9.09;100.00;100359.36;67955;1275;1018137;-74
2023/12/17 03:34:09;;;;;;;;;;;;;;;9.13;100.00;100343.20;67996;1275;1016337;-74
2023/12/17 03:37:12;;;;;;;;;;;;;;;9.15;100.00;100352.37;68014;1275;1016485;-74
2023/12/17 03:40:14;;;;;;;;;;;;;;;9.17;100.00;100358.95;67998;1275;1016490;-74
2023/12/17 03:43:17;;;;;;;;;;;;;;;9.16;100.00;100358.28;67991;1275;1016535;-74
2023/12/17 03:46:19;;;;;;;;;;;;;;;9.10;100.00;100359.52;68062;1275;1016602;-74
2023/12/17 03:49:25;;;;;;;;;;;;;;;9.09;100.00;100367.21;67987;1275;1016624;-74
2023/12/17 03:52:27;;;;;;;;;;;;;;;9.15;100.00;100358.32;68036;1275;1015978;-74
2023/12/17 03:55:30;;;;;;;;;;;;;;;9.18;100.00;100361.55;68005;1275;1015837;-75
2023/12/17 03:58:33;;;;;;;;;;;;;;;9.39;100.00;100372.39;68007;1275;1016856;-74
2023/12/17 04:01:35;;;;;;;;;;;;;;;9.20;100.00;100376.48;68014;1275;1016422;-73
2023/12/17 04:04:38;;;;;;;;;;;;;;;9.29;100.00;100366.77;68025;1275;1015905;-74
2023/12/17 04:07:40;;;;;;;;;;;;;;;9.22;100.00;100354.27;68004;1275;1016228;-74
2023/12/17 04:10:43;;;;;;;;;;;;;;;9.11;100.00;100353.02;67968;1275;1017981;-74
2023/12/17 04:13:46;;;;;;;;;;;;;;;9.49;100.00;100353.21;68019;1275;1016086;-74
2023/12/17 04:16:49;;;;;;;;;;;;;;;9.24;100.00;100353.68;68014;1275;1016447;-73
2023/12/17 04:19:52;;;;;;;;;;;;;;;9.29;100.00;100351.94;67994;1275;1016244;-74
2023/12/17 04:22:55;;;;;;;;;;;;;;;9.18;100.00;100340.23;68021;1275;1016299;-75
2023/12/17 04:25:57;;;;;;;;;;;;;;;9.32;100.00;100336.13;67988;1275;1019655;-74
2023/12/17 04:29:00;;;;;;;;;;;;;;;9.28;100.00;100335.91;68012;1275;1016278;-74
2023/12/17 04:32:02;;;;;;;;;;;;;;;9.28;100.00;100340.45;68034;1275;1016423;-74
2023/12/17 04:35:06;;;;;;;;;;;;;;;9.33;100.00;100342.23;68003;1275;1016997;-74
2023/12/17 04:38:09;;;;;;;;;;;;;;;9.43;100.00;100342.77;68001;1275;1018459;-75
2023/12/17 04:41:11;;;;;;;;;;;;;;;9.46;100.00;100347.58;68006;1275;1016707;-74
2023/12/17 04:44:14;;;;;;;;;;;;;;;9.38;100.00;100331.59;68055;1275;1016300;-75
2023/12/17 04:47:16;;;;;;;;;;;;;;;9.43;100.00;100301.73;68031;1275;1016472;-75
2023/12/17 04:50:19;;;;;;;;;;;;;;;9.41;100.00;100301.48;67998;1275;1016183;-74
2023/12/17 04:53:22;;;;;;;;;;;;;;;9.45;100.00;100319.13;68036;1275;1016324;-75
2023/12/17 04:56:24;;;;;;;;;;;;;;;9.40;100.00;100315.28;68040;1275;1016317;-75
2023/12/17 04:59:27;;;;;;;;;;;;;;;9.66;100.00;100321.77;67972;1275;1016346;-75
2023/12/17 05:02:29;;;;;;;;;;;;;;;9.63;100.00;100318.90;67997;1275;1016612;-75
2023/12/17 05:05:32;;;;;;;;;;;;;;;9.44;100.00;100335.61;68047;1275;1017274;-75
2023/12/17 05:08:35;;;;;;;;;;;;;;;9.47;100.00;100332.87;68007;1275;1016335;-74
2023/12/17 05:11:37;;;;;;;;;;;;;;;9.56;100.00;100340.60;67997;1275;1016329;-73
2023/12/17 05:14:40;;;;;;;;;;;;;;;9.60;100.00;100334.36;68035;1275;1016358;-75
2023/12/17 05:17:42;;;;;;;;;;;;;;;9.54;100.00;100345.39;68033;1275;1016005;-75
2023/12/17 05:20:45;;;;;;;;;;;;;;;9.57;100.00;100360.83;68021;1275;1016374;-74
2023/12/17 05:23:48;;;;;;;;;;;;;;;9.65;100.00;100361.43;68049;1275;1016362;-74
2023/12/17 05:26:51;;;;;;;;;;;;;;;9.59;100.00;100352.20;65438;1275;6399792;-75
2023/12/17 05:30:03;;;;;;;;;;;;;;;9.49;100.00;100354.80;67962;1275;1015715;-74
2023/12/17 05:33:07;;;;;;;;;;;;;;;9.58;100.00;100354.70;68042;1275;1016176;-74
2023/12/17 05:36:10;;;;;;;;;;;;;;;9.59;100.00;100355.72;68037;1275;1016040;-74
2023/12/17 05:39:13;;;;;;;;;;;;;;;9.33;100.00;100364.75;67997;1275;1016550;-75
2023/12/17 05:42:15;;;;;;;;;;;;;;;9.35;100.00;100358.38;67997;1275;1016450;-74
2023/12/17 05:45:18;;;;;;;;;;;;;;;9.37;100.00;100356.58;67980;1275;1016885;-74
2023/12/17 05:48:20;;;;;;;;;;;;;;;9.16;100.00;100353.20;68040;1275;1016374;-74
2023/12/17 05:51:23;;;;;;;;;;;;;;;9.32;100.00;100358.83;68008;1275;1016217;-75
2023/12/17 05:54:26;;;;;;;;;;;;;;;9.26;100.00;100354.13;67985;1275;1018515;-75
2023/12/17 05:57:28;;;;;;;;;;;;;;;9.28;100.00;100357.40;68058;1275;1016514;-74
2023/12/17 06:00:31;;;;;;;;;;;;;;;9.27;100.00;100373.65;68047;1275;1016213;-73
2023/12/17 06:03:33;;;;;;;;;;;;;;;9.20;100.00;100376.16;67996;1275;1016549;-74
2023/12/17 06:06:36;;;;;;;;;;;;;;;9.31;100.00;100387.49;68007;1275;1016313;-75
2023/12/17 06:09:40;;;;;;;;;;;;;;;9.20;100.00;100394.27;68051;1275;1016076;-75
2023/12/17 06:12:43;;;;;;;;;;;;;;;9.40;100.00;100391.59;68061;1275;1016379;-74
2023/12/17 06:15:46;;;;;;;;;;;;;;;9.36;100.00;100385.61;68012;1275;1018584;-75
2023/12/17 06:18:48;;;;;;;;;;;;;;;9.26;100.00;100383.44;68031;1275;1016276;-74
2023/12/17 06:21:51;;;;;;;;;;;;;;;9.25;100.00;100385.92;68030;1275;1016403;-74
2023/12/17 06:24:53;;;;;;;;;;;;;;;9.07;100.00;100386.82;67976;1275;1016467;-75
2023/12/17 06:27:56;;;;;;;;;;;;;;;9.04;100.00;100377.84;68045;1275;1016296;-74
2023/12/17 06:30:59;;;;;;;;;;;;;;;9.06;100.00;100382.83;68011;1275;1016452;-75
2023/12/17 06:34:01;;;;;;;;;;;;;;;8.98;100.00;100383.09;67952;1275;1018506;-75
2023/12/17 06:37:04;;;;;;;;;;;;;;;8.89;100.00;100377.76;68003;1275;1016623;-74
2023/12/17 06:40:09;;;;;;;;;;;;;;;9.00;100.00;100376.02;68066;1275;1016442;-75
2023/12/17 06:43:12;;;;;;;;;;;;;;;9.02;100.00;100386.96;68029;1275;1016406;-75
2023/12/17 06:46:15;;;;;;;;;;;;;;;9.12;100.00;100378.65;68041;1275;1016423;-75
2023/12/17 06:49:18;;;;;;;;;;;;;;;9.29;100.00;100379.71;68017;1275;1017186;-74
2023/12/17 06:52:21;;;;;;;;;;;;;;;9.21;100.00;100379.09;68031;1275;1016173;-75
2023/12/17 06:55:24;;;;;;;;;;;;;;;9.25;100.00;100380.71;67978;1275;1016397;-74
2023/12/17 06:58:26;;;;;;;;;;;;;;;9.29;100.00;100387.02;67985;1275;1016334;-74
2023/12/17 07:01:29;;;;;;;;;;;;;;;9.31;100.00;100383.31;68012;1275;1016412;-74
2023/12/17 07:04:32;;;;;;;;;;;;;;;9.26;100.00;100387.46;68009;1275;1016300;-75
2023/12/17 07:07:34;;;;;;;;;;;;;;;9.16;100.00;100390.02;68041;1275;1016330;-75
2023/12/17 07:10:37;;;;;;;;;;;;;;;9.18;100.00;100384.75;68061;1275;1018579;-75
2023/12/17 07:13:39;;;;;;;;;;;;;;;9.09;100.00;100388.32;68041;1275;1016455;-75
2023/12/17 07:16:42;;;;;;;;;;;;;;;8.95;100.00;100391.73;67978;1275;1016142;-74
2023/12/17 07:19:45;;;;;;;;;;;;;;;9.03;100.00;100410.67;67975;1275;1016448;-74
2023/12/17 07:22:48;;;;;;;;;;;;;;;8.97;100.00;100419.73;67967;1275;1016447;-75
2023/12/17 07:25:51;;;;;;;;;;;;;;;8.92;100.00;100423.90;67947;1275;1016500;-74
2023/12/17 07:28:53;;;;;;;;;;;;;;;8.88;100.00;100420.02;67997;1275;1016519;-74
2023/12/17 07:31:57;;;;;;;;;;;;;;;8.60;100.00;100422.00;68024;1275;1016409;-75
2023/12/17 07:34:59;;;;;;;;;;;;;;;8.53;100.00;100412.95;68026;1275;1018140;-75
2023/12/17 07:38:02;;;;;;;;;;;;;;;8.50;100.00;100414.05;68000;1275;1016876;-75
2023/12/17 07:41:05;;;;;;;;;;;;;;;8.77;100.00;100410.73;68006;1275;1016361;-75
2023/12/17 07:44:07;;;;;;;;;;;;;;;8.73;100.00;100417.80;68019;1275;1018966;-75
2023/12/17 07:47:10;;;;;;;;;;;;;;;8.64;100.00;100426.08;68023;1275;1016499;-75
2023/12/17 07:50:13;;;;;;;;;;;;;;;8.66;100.00;100422.73;68004;1275;1016367;-74
2023/12/17 07:53:16;;;;;;;;;;;;;;;8.66;100.00;100432.82;68045;1275;1016736;-75
2023/12/17 07:56:18;;;;;;;;;;;;;;;8.65;100.00;100425.69;67987;1275;1016509;-74
2023/12/17 07:59:21;;;;;;;;;;;;;;;8.70;100.00;100429.73;67991;1275;1016614;-75
2023/12/17 08:02:24;;;;;;;;;;;;;;;8.68;100.00;100437.98;68001;1275;1016492;-75
2023/12/17 08:05:26;;;;;;;;;;;;;;;8.81;100.00;100440.60;67964;1275;1015801;-74
2023/12/17 08:08:29;;;;;;;;;;;;;;;8.79;100.00;100440.65;67983;1275;1015806;-74
2023/12/17 08:11:32;;;;;;;;;;;;;;;8.77;100.00;100445.77;67975;1275;1016302;-74
2023/12/17 08:14:34;;;;;;;;;;;;;;;8.78;100.00;100456.36;68005;1275;1016336;-75
2023/12/17 08:17:37;;;;;;;;;;;;;;;8.81;100.00;100451.05;67960;1275;1016328;-74
2023/12/17 08:20:39;;;;;;;;;;;;;;;8.82;100.00;100461.68;67974;1275;1016354;-74
2023/12/17 08:23:42;;;;;;;;;;;;;;;8.90;100.00;100451.00;68005;1275;1016277;-75
2023/12/17 08:26:44;;;;;;;;;;;;;;;9.04;100.00;100454.27;68047;1275;1016253;-76
2023/12/17 08:29:50;;;;;;;;;;;;;;;9.15;100.00;100464.59;67975;1275;1016458;-75
2023/12/17 08:32:53;;;;;;;;;;;;;;;9.00;100.00;100458.21;67968;1275;1016281;-75
2023/12/17 08:35:56;;;;;;;;;;;;;;;8.97;100.00;100468.60;68032;1275;1018461;-74
2023/12/17 08:38:59;;;;;;;;;;;;;;;9.05;100.00;100467.33;68059;1275;1016103;-74
2023/12/17 08:42:01;;;;;;;;;;;;;;;9.14;100.00;100466.02;67991;1275;1018879;-74
2023/12/17 08:45:04;;;;;;;;;;;;;;;9.12;100.00;100468.52;68052;1275;1016098;-74
2023/12/17 08:48:07;;;;;;;;;;;;;;;9.02;100.00;100474.40;68009;1275;1016077;-74
2023/12/17 08:51:09;;;;;;;;;;;;;;;9.21;100.00;100477.52;68010;1275;1016323;-74
2023/12/17 08:54:12;;;;;;;;;;;;;;;9.16;100.00;100491.27;68025;1275;1016656;-75
2023/12/17 08:57:17;;;;;;;;;;;;;;;9.31;100.00;100490.30;68057;1275;1016511;-74
2023/12/17 09:00:21;;;;;;;;;;;;;;;9.33;100.00;100487.98;68048;1275;1016655;-74
2023/12/17 09:03:24;;;;;;;;;;;;;;;9.35;100.00;100484.94;68066;1275;1016384;-74
2023/12/17 09:06:28;;;;;;;;;;;;;;;9.23;100.00;100486.00;68035;1275;1016288;-75
2023/12/17 09:09:30;;;;;;;;;;;;;;;9.11;100.00;100485.46;68056;1275;1016419;-74
2023/12/17 09:12:33;;;;;;;;;;;;;;;9.05;100.00;100481.28;68031;1275;1016462;-75
2023/12/17 09:15:36;;;;;;;;;;;;;;;8.90;100.00;100477.69;67997;1275;1016282;-74
2023/12/17 09:18:39;;;;;;;;;;;;;;;8.72;100.00;100482.19;68049;1275;1016442;-74
2023/12/17 09:21:42;;;;;;;;;;;;;;;8.73;100.00;100477.45;67963;1275;1016625;-75
2023/12/17 09:24:44;;;;;;;;;;;;;;;8.81;100.00;100474.10;68024;1275;1016442;-74
2023/12/17 09:27:47;;;;;;;;;;;;;;;9.02;100.00;100477.33;68000;1275;1016361;-75
2023/12/17 09:31:01;;;;;;;;;;;;;;;;;;;;;
2023/12/17 09:34:14;;;;;;;;;;;;;;;9.29;100.00;100485.66;67941;1275;1016284;-74
2023/12/17 09:37:17;;;;;;;;;;;;;;;9.17;100.00;100477.46;68045;1275;1016275;-74
2023/12/17 09:40:19;;;;;;;;;;;;;;;9.35;100.00;100469.44;68020;1275;1016480;-74
2023/12/17 09:43:24;;;;;;;;;;;;;;;9.33;100.00;100460.92;68048;1275;1017411;-73
2023/12/17 09:46:27;;;;;;;;;;;;;;;9.28;100.00;100454.45;68005;1275;1017271;-74
2023/12/17 09:49:30;;;;;;;;;;;;;;;9.32;100.00;100456.91;67953;1275;1016208;-75
2023/12/17 09:52:33;;;;;;;;;;;;;;;9.44;100.00;100464.61;68050;1275;1016381;-75
2023/12/17 09:55:35;;;;;;;;;;;;;;;9.42;100.00;100463.46;67995;1275;1016241;-75
2023/12/17 09:58:38;;;;;;;;;;;;;;;9.17;100.00;100469.59;68072;1275;1016236;-74
2023/12/17 10:01:41;;;;;;;;;;;;;;;9.09;100.00;100463.90;68092;1275;1016265;-74
2023/12/17 10:04:43;;;;;;;;;;;;;;;9.07;100.00;100462.02;67981;1275;1016426;-73
2023/12/17 10:07:46;;;;;;;;;;;;;;;9.08;100.00;100456.22;68043;1275;1016504;-74
2023/12/17 10:10:49;;;;;;;;;;;;;;;9.05;100.00;100453.17;67931;1275;1016503;-74
2023/12/17 10:13:51;;;;;;;;;;;;;;;9.00;100.00;100457.36;68057;1275;1016409;-75
2023/12/17 10:16:54;;;;;;;;;;;;;;;9.12;100.00;100456.83;68034;1275;1016443;-74
2023/12/17 10:19:56;;;;;;;;;;;;;;;8.94;100.00;100461.52;68030;1275;1016474;-75
2023/12/17 10:22:59;;;;;;;;;;;;;;;8.89;100.00;100457.30;68048;1275;1016640;-74
2023/12/17 10:26:03;;;;;;;;;;;;;;;8.83;100.00;100460.10;68008;1275;1016333;-74
2023/12/17 10:29:06;;;;;;;;;;;;;;;8.87;100.00;100455.45;67984;1275;1016358;-74
2023/12/17 10:32:09;;;;;;;;;;;;;;;8.81;100.00;100453.86;67970;1275;1016389;-75
2023/12/17 10:35:12;;;;;;;;;;;;;;;8.84;100.00;100445.23;67992;1275;1016367;-75
2023/12/17 10:38:15;;;;;;;;;;;;;;;8.88;100.00;100447.56;67987;1275;1016487;-74
2023/12/17 10:41:19;;;;;;;;;;;;;;;8.81;100.00;100442.53;68020;1275;1016533;-74
2023/12/17 10:44:21;;;;;;;;;;;;;;;8.98;100.00;100442.21;68036;1275;1016074;-75
2023/12/17 10:47:25;;;;;;;;;;;;;;;9.06;100.00;100441.29;68042;1275;1018420;-74
2023/12/17 10:50:28;;;;;;;;;;;;;;;8.87;100.00;100446.54;67982;1275;1016166;-75
2023/12/17 10:53:31;;;;;;;;;;;;;;;8.95;100.00;100445.11;68021;1275;1015901;-75
2023/12/17 10:56:34;;;;;;;;;;;;;;;8.87;100.00;100433.13;68042;1275;1016387;-75
2023/12/17 10:59:37;;;;;;;;;;;;;;;8.94;100.00;100424.70;68011;1275;1016275;-75
2023/12/17 11:02:40;;;;;;;;;;;;;;;8.90;100.00;100427.97;67985;1275;1016433;-74
2023/12/17 11:05:42;;;;;;;;;;;;;;;8.96;100.00;100434.09;68002;1275;1016337;-74
2023/12/17 11:08:46;;;;;;;;;;;;;;;9.06;100.00;100439.36;68017;1275;1016333;-74
2023/12/17 11:11:51;;;;;;;;;;;;;;;9.17;100.00;100442.55;68016;1275;1016480;-75
2023/12/17 11:14:54;;;;;;;;;;;;;;;9.20;100.00;100438.25;68063;1275;1016117;-75
2023/12/17 11:17:57;;;;;;;;;;;;;;;9.16;100.00;100439.97;68028;1275;1016507;-75
2023/12/17 11:21:00;;;;;;;;;;;;;;;9.05;100.00;100442.55;68018;1275;1016395;-75
2023/12/17 11:24:02;;;;;;;;;;;;;;;9.21;100.00;100433.55;68051;1275;1015973;-74
2023/12/17 11:27:05;;;;;;;;;;;;;;;9.16;100.00;100431.93;67946;1275;1017078;-75
2023/12/17 11:30:07;;;;;;;;;;;;;;;9.11;100.00;100435.91;67992;1275;1016157;-75
2023/12/17 11:33:10;;;;;;;;;;;;;;;9.22;100.00;100435.58;68065;1275;1017226;-74
2023/12/17 11:36:12;;;;;;;;;;;;;;;9.29;100.00;100435.05;68065;1275;1016419;-74
2023/12/17 11:39:15;;;;;;;;;;;;;;;9.27;100.00;100427.39;68010;1275;1015982;-74
2023/12/17 11:42:18;;;;;;;;;;;;;;;9.15;100.00;100421.68;68038;1275;1016310;-74
2023/12/17 11:45:20;;;;;;;;;;;;;;;9.02;100.00;100420.98;68048;1275;1016628;-74
2023/12/17 11:48:23;;;;;;;;;;;;;;;9.11;100.00;100417.08;68022;1275;1015859;-74
2023/12/17 11:51:26;;;;;;;;;;;;;;;9.17;100.00;100410.61;68021;1275;1016153;-75
2023/12/17 11:54:29;;;;;;;;;;;;;;;9.44;100.00;100414.33;68060;1275;1015575;-75
2023/12/17 11:57:33;;;;;;;;;;;;;;;9.54;100.00;100408.27;68014;1275;1015805;-75
2023/12/17 12:00:37;;;;;;;;;;;;;;;9.23;100.00;100409.23;68023;1275;1018322;-74
2023/12/17 12:03:39;;;;;;;;;;;;;;;9.23;100.00;100414.95;67998;1275;1016404;-74
2023/12/17 12:06:42;;;;;;;;;;;;;;;9.33;100.00;100410.12;68007;1275;1016979;-73
2023/12/17 12:09:45;;;;;;;;;;;;;;;9.27;100.00;100409.63;68013;1275;1016449;-74
2023/12/17 12:12:47;;;;;;;;;;;;;;;9.23;100.00;100409.39;68038;1275;1016002;-74
2023/12/17 12:15:50;;;;;;;;;;;;;;;9.17;100.00;100415.51;68030;1275;1016561;-74
2023/12/17 12:18:52;;;;;;;;;;;;;;;9.16;100.00;100412.55;68000;1275;1016733;-74
2023/12/17 12:21:55;;;;;;;;;;;;;;;9.18;100.00;100409.89;68024;1275;1015726;-74
2023/12/17 12:24:58;;;;;;;;;;;;;;;9.05;100.00;100416.02;67992;1275;1019362;-74
2023/12/17 12:28:01;;;;;;;;;;;;;;;9.20;100.00;100410.00;68040;1275;1016961;-74
2023/12/17 12:31:04;;;;;;;;;;;;;;;9.23;100.00;100408.15;67993;1275;1016876;-75
2023/12/17 12:34:07;;;;;;;;;;;;;;;9.18;100.00;100417.04;68063;1275;1018212;-74
2023/12/17 12:37:10;;;;;;;;;;;;;;;9.19;100.00;100423.46;68006;1275;1017788;-74
2023/12/17 12:40:12;;;;;;;;;;;;;;;9.21;100.00;100431.27;67994;1275;1018301;-74
2023/12/17 12:43:16;;;;;;;;;;;;;;;9.21;100.00;100431.77;68052;1275;1016233;-75
2023/12/17 12:46:19;;;;;;;;;;;;;;;9.29;100.00;100435.39;67945;1275;1018125;-74
2023/12/17 12:49:21;;;;;;;;;;;;;;;9.54;100.00;100438.81;68040;1275;1016079;-74
2023/12/17 12:52:26;;;;;;;;;;;;;;;9.31;100.00;100450.66;68041;1275;1018310;-75
2023/12/17 12:55:29;;;;;;;;;;;;;;;9.24;100.00;100454.05;67969;1275;1016467;-74
2023/12/17 12:58:32;;;;;;;;;;;;;;;9.23;100.00;100456.68;68035;1275;1015673;-75
2023/12/17 13:01:34;;;;;;;;;;;;;;;9.15;100.00;100452.55;67977;1275;1016455;-75
2023/12/17 13:04:37;;;;;;;;;;;;;;;9.11;100.00;100458.79;68007;1275;1016269;-75
2023/12/17 13:07:40;;;;;;;;;;;;;;;9.14;100.00;100460.42;68036;1275;1016396;-75
2023/12/17 13:10:42;;;;;;;;;;;;;;;9.17;100.00;100458.95;68019;1275;1017773;-74
2023/12/17 13:13:45;;;;;;;;;;;;;;;9.21;100.00;100452.73;68018;1275;1016448;-75
2023/12/17 13:16:50;;;;;;;;;;;;;;;9.27;100.00;100445.04;68071;1275;1016291;-73
2023/12/17 13:19:53;;;;;;;;;;;;;;;9.26;100.00;100437.57;68031;1275;1015920;-74
2023/12/17 13:22:55;;;;;;;;;;;;;;;9.23;100.00;100431.73;68027;1275;1016482;-74
2023/12/17 13:25:58;;;;;;;;;;;;;;;9.18;100.00;100421.56;68020;1275;1016473;-74
2023/12/17 13:29:00;;;;;;;;;;;;;;;9.16;100.00;100422.85;68044;1275;1016217;-74
2023/12/17 13:32:03;;;;;;;;;;;;;;;9.24;100.00;100417.55;68015;1275;1016426;-73
2023/12/17 13:35:06;;;;;;;;;;;;;;;9.31;100.00;100415.60;68062;1275;1016397;-75
2023/12/17 13:38:09;;;;;;;;;;;;;;;9.26;100.00;100414.70;68043;1275;1016441;-74
2023/12/17 13:41:12;;;;;;;;;;;;;;;9.27;100.00;100409.80;68052;1275;1016204;-74
2023/12/17 13:44:15;;;;;;;;;;;;;;;9.51;100.00;100414.13;68018;1275;1016238;-75
2023/12/17 13:47:18;;;;;;;;;;;;;;;9.53;100.00;100411.27;67998;1275;1016546;-74
2023/12/17 13:50:20;;;;;;;;;;;;;;;9.68;100.00;100408.69;68021;1275;1016717;-74
2023/12/17 13:53:23;;;;;;;;;;;;;;;9.59;100.00;100411.95;67991;1275;1019660;-74
2023/12/17 13:56:26;;;;;;;;;;;;;;;9.57;100.00;100411.84;68044;1275;1016454;-74
2023/12/17 13:59:30;;;;;;;;;;;;;;;9.40;100.00;100399.60;68035;1275;1017093;-74
2023/12/17 14:02:32;;;;;;;;;;;;;;;9.30;100.00;100401.31;68067;1275;1016582;-75
2023/12/17 14:05:35;;;;;;;;;;;;;;;9.51;100.00;100400.48;68003;1275;1016387;-73
2023/12/17 14:08:39;;;;;;;;;;;;;;;9.55;100.00;100394.79;68040;1275;1016226;-74
2023/12/17 14:11:45;;;;;;;;;;;;;;;9.58;100.00;100391.52;68033;1275;1016431;-74
2023/12/17 14:14:48;;;;;;;;;;;;;;;9.61;100.00;100388.64;68035;1275;1016221;-74
2023/12/17 14:17:50;;;;;;;;;;;;;;;9.53;100.00;100395.19;67978;1275;1016483;-74
2023/12/17 14:20:53;;;;;;;;;;;;;;;9.68;100.00;100394.87;68028;1275;1016475;-74
2023/12/17 14:23:56;;;;;;;;;;;;;;;9.59;100.00;100387.33;67983;1275;1016307;-74
2023/12/17 14:26:58;;;;;;;;;;;;;;;9.94;100.00;100390.73;68026;1275;1016442;-74
2023/12/17 14:30:02;;;;;;;;;;;;;;;10.04;100.00;100393.20;68020;1275;1016418;-74
2023/12/17 14:33:06;;;;;;;;;;;;;;;9.88;100.00;100389.70;68006;1275;1017649;-74
2023/12/17 14:36:09;;;;;;;;;;;;;;;9.85;100.00;100396.45;67858;1275;1016097;-73
2023/12/17 14:39:11;;;;;;;;;;;;;;;9.90;100.00;100398.54;67873;1275;1016304;-74
2023/12/17 14:42:14;;;;;;;;;;;;;;;9.74;100.00;100410.40;67906;1275;1017961;-74
2023/12/17 14:45:17;;;;;;;;;;;;;;;9.71;100.00;100403.52;67853;1275;1016292;-74
2023/12/17 14:48:20;;;;;;;;;;;;;;;9.70;100.00;100408.44;67933;1275;1016396;-73
2023/12/17 14:51:23;;;;;;;;;;;;;;;9.66;100.00;100410.16;68029;1275;1017287;-74
2023/12/17 14:54:25;;;;;;;;;;;;;;;9.69;100.00;100414.77;68019;1275;1016472;-74
2023/12/17 14:57:28;;;;;;;;;;;;;;;9.61;100.00;100415.20;68048;1275;1016289;-74
2023/12/17 15:00:31;;;;;;;;;;;;;;;9.62;100.00;100417.09;68009;1275;1016271;-74
2023/12/17 15:03:33;;;;;;;;;;;;;;;9.67;100.00;100405.57;68024;1275;1016860;-75
2023/12/17 15:06:36;;;;;;;;;;;;;;;9.65;100.00;100414.02;68041;1275;1020058;-74
2023/12/17 15:09:38;;;;;;;;;;;;;;;9.83;100.00;100410.66;68037;1275;1015981;-73
2023/12/17 15:12:41;;;;;;;;;;;;;;;9.76;100.00;100400.77;67990;1275;1016462;-74
2023/12/17 15:15:44;;;;;;;;;;;;;;;9.80;100.00;100415.64;67958;1275;1016312;-74